Aérodrome :
LOGIN :

S'inscrire | Disclaimer

   EN    FR    IT 

 










Légende :    VFR   VFR Marginal   IFR   IFR Intensif   IFR Très Intensif
Visi : 
Plafond : 
>= 8 km
>= 3000ft
5 à 8 km
1000 à 3000 ft
1500m à 5 km
500 à 1000 ft
800 à 1500m
200 à 500 ft
< 800m
< 200 ft
Symboles :   Orages  Brouillard  Fortes neiges  Fortes précipitations  Vent > 20 kt
SIGMETs :   Divers  Orages  Givrage  Turbulence  Onde Orograph.  Cendres Volcan.







- Altitude de l'aérodrome : 74 ft
- Code IATA : EIN


EHEH - Eindhoven

DERNIER METAR :
  • 240025Z AUTO 17003KT 9999 -DZRA SCT074 BKN081 OVC086 14/14 Q1010 BLU

METARs EXPIRÉS :
  • 232355Z AUTO VRB02KT 9000 BR SCT043 BKN048 BKN053 14/14 Q1011 BLU
  • 232325Z AUTO 15004KT 130V190 9000 BR FEW024 OVC050 14/14 Q1011 BLU
  • 232310Z AUTO 15005KT 130V230 8000 BR SCT078 BKN087 OVC097 14/14 Q1011 BLU
  • 232255Z AUTO 14005KT 9999 FEW031 BKN084 OVC097 14/14 Q1011 BLU
  • 232236Z AUTO 14004KT 110V170 9000 BR FEW036 OVC087 14/14 Q1011 BLU
  • 232225Z AUTO 15004KT 110V170 6000 BR FEW038 OVC090 14/14 Q1012 WHT
  • 232209Z AUTO 13002KT 4200 BR OVC096 14/14 Q1012 GRN
  • 232156Z AUTO 12002KT 4400 BR OVC100 14/14 Q1012 GRN
  • 232155Z AUTO 12003KT 5000 BR FEW071 OVC100 14/14 Q1012 WHT
  • 232138Z AUTO 12003KT 110V210 7000 BR FEW074 SCT100 OVC180 14/14 Q1012 WHT
  • 232125Z AUTO VRB02KT 2500 R21/P3000N BR FEW025 BKN120 OVC180 13/13 Q1012 YLO VRB05KT 9999 FEW015 SCT020 BKN050 TEMPO 24010G20KT 5000 SHRA SCT020CB BKN030

TAF TAF EHEH
Valide du 24 à 00h jusqu'au 25 à 06h UTC


232321Z 2400/2506 22006KT 9999 CAVOK
PROB40
TEMPO 2400/2407 VRB03KT 2500 BR MIFG
TEMPO 2400/2421 SCT025CB BKN040
PROB30
TEMPO 2400/2421 22012G25KT 3000 TSRA SCT014 SCT020CB BKN030
BECMG 2412/2415 32006KT SCT030 BKN050
PROB30 2500/2506 1500 BCFG
Pas de NOTAMs connus pour ce terrain.



MET'MAP, la Météo Aéronautique d'un coup d'oeil ! - Copyright ORBIFLY Décembre 2007 - Disclaimer

ORBIFLY MET'MAP TEAM :

Programmation & Développement : Alexandra Zaïnal
Conception & Développement : Baudouin d'Aumeries
Co-Programmation & Développement : Marc-Olivier Méhu
Soutien technique & logistique : Manuel Goepfert

Contact : metmap@orbifly.com




SOURCES & CREDITS :

   NOAA